Ana Sayfa
METAR-TAF:

METAR-TAF

Havaalanları :

Raleigh-Durham International Airport

Raleigh / Durham, Kuzey Carolina, Amerika Birleşik Devletleri

Enlem: 35-52-14N, Boylam: 078-47-11W, yükseklik: 133 m

Güncel hava durumu gözlemi

Rapor saat 14:51 UTC de 9 dakika önce yapıldı.
Rüzgar güney/güneybatıdan 8 kt
Sıcaklık 31°C
Nem 59%
Basınç 1016 hPa
Görüş mesafesi: 16.1 km
3800 ft yükseklikte az bulutlu
16000 ft yükseklikte az bulutlu
25000 ft yükseklikte parçalı bulutlu

METAR: KRDU 181451Z 21008KT 10SM FEW038 FEW160 SCT250 31/22 A2999 RMK AO2 SLP149 T03110222 50002

Saat: 11:00 (15:00 UTC)

Tahmin

Rapor saat 11:20 UTC de 3 saat ve 40 dakika önce yapıldı.
Ayın 18'si saat 12 UTC'den ayın 19'si saat 12 UTC'ye kadar geçerli Tahmin
Rüzgar batı/güneybatıdan 8 kt
Görüş mesafesi: 10 km
5000 ft yükseklikte parçalı bulutlu
25000 ft yükseklikte parçalı çok bulutlu

TAF: KRDU 181120Z 1812/1912 24008KT P6SM SCT050 BKN250

4.000'den fazla havaalanı için hava durumu gözlemleri ve tahminleri (METAR ve TAF raporları).

Kullanılabilir istasyonlar harita üzerinde sarı ve kırmızı noktalarla gösterilir.

İstasyonun adını görmek için fareyi noktanın üzerinde gezdirin.

Sonrasında hava gözlem ve tahminlerini görmek için tıklayın.

Haritayı değiştirmek için: yaklaştırmak için siyah artı işaretli yeşil düğmeye ve uzaklaştırmak için de eksi işaretli düğmeye hızla tıklayın; bitişik haritalar için yeşil okları kullanın.


METAR-TAF: